createdAt,value
2022-09-27T00:02:23.738Z,10.07
2022-09-27T00:04:50.321Z,10.06
2022-09-27T00:07:16.736Z,10.05
2022-09-27T00:09:43.178Z,9.96
2022-09-27T00:12:09.838Z,9.90
2022-09-27T00:14:36.248Z,9.91
2022-09-27T00:17:02.658Z,9.87
2022-09-27T00:19:29.053Z,9.85
2022-09-27T00:21:56.378Z,9.92
2022-09-27T00:24:23.009Z,9.79
2022-09-27T00:26:49.918Z,9.87
2022-09-27T00:29:17.265Z,9.99
2022-09-27T00:31:43.909Z,9.99
2022-09-27T00:34:16.707Z,10.03
2022-09-27T00:36:43.104Z,10.01
2022-09-27T00:39:09.517Z,9.89
2022-09-27T00:41:37.315Z,9.76
2022-09-27T00:44:22.395Z,9.77
2022-09-27T00:46:50.700Z,9.87
2022-09-27T00:49:17.067Z,9.78
2022-09-27T00:51:45.711Z,9.85
2022-09-27T00:54:14.148Z,9.75
2022-09-27T00:56:42.200Z,9.77
2022-09-27T00:59:20.660Z,9.75
2022-09-27T01:01:49.135Z,9.76
2022-09-27T01:04:18.415Z,9.78
2022-09-27T01:06:44.807Z,9.73
2022-09-27T01:09:11.919Z,9.71
2022-09-27T01:11:56.394Z,9.71
2022-09-27T01:14:22.767Z,9.68
2022-09-27T01:16:58.304Z,9.68
2022-09-27T01:19:43.489Z,9.63
2022-09-27T01:22:14.540Z,9.61
2022-09-27T01:24:59.454Z,9.61
2022-09-27T01:27:32.086Z,9.64
2022-09-27T01:30:13.781Z,9.66
2022-09-27T01:32:55.477Z,9.67
2022-09-27T01:35:21.949Z,9.65
2022-09-27T01:38:17.796Z,9.67
2022-09-27T01:41:02.739Z,9.74
2022-09-27T01:43:33.013Z,9.68
2022-09-27T01:46:03.044Z,9.71
2022-09-27T01:48:34.074Z,9.66
2022-09-27T01:51:32.603Z,9.71
2022-09-27T01:54:02.920Z,9.64
2022-09-27T01:56:33.186Z,9.61
2022-09-27T01:59:14.672Z,9.58
2022-09-27T02:01:44.238Z,9.61
2022-09-27T02:04:13.813Z,9.65
2022-09-27T02:06:42.380Z,9.72
2022-09-27T02:09:22.286Z,9.63
2022-09-27T02:11:55.460Z,9.60
2022-09-27T02:14:27.195Z,9.67
2022-09-27T02:16:54.915Z,9.60
2022-09-27T02:19:40.152Z,9.64
2022-09-27T02:22:18.766Z,9.69
2022-09-27T02:24:53.121Z,9.66
2022-09-27T02:27:34.177Z,9.64
2022-09-27T02:30:03.367Z,9.56
2022-09-27T02:32:30.132Z,9.59
2022-09-27T02:34:59.533Z,9.53
2022-09-27T02:37:25.898Z,9.55
2022-09-27T02:39:52.380Z,9.52
2022-09-27T02:42:18.815Z,9.46
2022-09-27T02:44:45.523Z,9.41
2022-09-27T02:47:14.756Z,9.36
2022-09-27T02:49:55.422Z,9.29
2022-09-27T02:52:47.901Z,9.26
2022-09-27T02:55:17.172Z,9.19
2022-09-27T02:57:43.525Z,9.18
2022-09-27T03:00:14.094Z,9.14
2022-09-27T03:02:43.548Z,9.19
2022-09-27T03:05:32.048Z,9.20
2022-09-27T03:07:58.646Z,9.18
2022-09-27T03:10:27.779Z,9.17
2022-09-27T03:12:54.972Z,9.10
2022-09-27T03:15:21.542Z,9.04
2022-09-27T03:17:48.071Z,8.98
2022-09-27T03:20:14.482Z,8.99
2022-09-27T03:22:40.994Z,9.01
2022-09-27T03:25:08.281Z,8.91
2022-09-27T03:27:34.795Z,8.92
2022-09-27T03:30:01.297Z,8.93
2022-09-27T03:32:28.232Z,8.98
2022-09-27T03:34:55.453Z,8.95
2022-09-27T03:37:22.562Z,8.95
2022-09-27T03:39:49.531Z,9.00
2022-09-27T03:42:15.918Z,9.00
2022-09-27T03:44:43.277Z,9.07
2022-09-27T03:47:09.874Z,9.02
2022-09-27T03:49:37.535Z,8.98
2022-09-27T03:52:03.973Z,9.01
2022-09-27T03:54:30.394Z,8.97
2022-09-27T03:56:56.764Z,8.95
2022-09-27T03:59:23.506Z,8.87
2022-09-27T04:01:50.139Z,8.79
2022-09-27T04:04:17.150Z,8.83
2022-09-27T04:06:43.678Z,8.86
2022-09-27T04:09:10.229Z,8.77
2022-09-27T04:11:36.666Z,8.74
2022-09-27T04:14:05.144Z,8.68
2022-09-27T04:16:32.771Z,8.69
2022-09-27T04:18:59.226Z,8.63
2022-09-27T04:21:25.619Z,8.65
2022-09-27T04:23:52.162Z,8.70
2022-09-27T04:26:18.640Z,8.74
2022-09-27T04:28:48.000Z,8.66
2022-09-27T04:31:17.381Z,8.68
2022-09-27T04:33:43.851Z,8.65
2022-09-27T04:36:27.415Z,8.60
2022-09-27T04:38:58.224Z,8.58
2022-09-27T04:41:25.556Z,8.56
2022-09-27T04:43:56.765Z,8.55
2022-09-27T04:46:25.990Z,8.54
2022-09-27T04:48:52.496Z,8.63
2022-09-27T04:51:20.044Z,8.64
2022-09-27T04:53:47.155Z,8.66
2022-09-27T04:56:14.142Z,8.60
2022-09-27T04:58:40.543Z,8.59
2022-09-27T05:01:07.319Z,8.57
2022-09-27T05:03:33.874Z,8.52
2022-09-27T05:06:00.725Z,8.53
2022-09-27T05:08:27.628Z,8.57
2022-09-27T05:10:54.761Z,8.55
2022-09-27T05:13:21.428Z,8.56
2022-09-27T05:15:47.937Z,8.56
2022-09-27T05:18:14.350Z,8.53
2022-09-27T05:20:40.785Z,8.53
2022-09-27T05:23:07.184Z,8.51
2022-09-27T05:25:33.630Z,8.56
2022-09-27T05:28:00.087Z,8.59
2022-09-27T05:30:27.436Z,8.67
2022-09-27T05:32:54.475Z,8.61
2022-09-27T05:35:20.969Z,9.01
2022-09-27T05:37:53.962Z,9.63
2022-09-27T05:40:40.455Z,9.60
2022-09-27T05:43:08.302Z,9.24
2022-09-27T05:45:34.793Z,9.16
2022-09-27T05:48:01.268Z,9.07
2022-09-27T05:50:27.788Z,9.04
2022-09-27T05:52:54.529Z,9.07
2022-09-27T05:55:21.156Z,8.92
2022-09-27T05:57:57.317Z,8.81
2022-09-27T06:00:25.890Z,8.72
2022-09-27T06:02:59.571Z,8.73
2022-09-27T06:05:27.090Z,8.73
2022-09-27T06:07:58.029Z,8.78
2022-09-27T06:10:24.538Z,8.79
2022-09-27T06:12:50.953Z,8.75
2022-09-27T06:15:17.351Z,8.70
2022-09-27T06:17:43.796Z,8.73
2022-09-27T06:20:10.551Z,8.77
2022-09-27T06:22:37.006Z,8.72
2022-09-27T06:25:04.113Z,8.67
2022-09-27T06:27:31.363Z,8.60
2022-09-27T06:29:57.811Z,8.63
2022-09-27T06:32:24.430Z,8.57
2022-09-27T06:34:50.819Z,8.61
2022-09-27T06:37:17.276Z,8.73
2022-09-27T06:39:43.639Z,8.63
2022-09-27T06:42:11.172Z,8.69
2022-09-27T06:44:37.613Z,8.67
2022-09-27T06:47:04.147Z,8.64
2022-09-27T06:49:30.942Z,8.71
2022-09-27T06:51:57.338Z,8.73
2022-09-27T06:54:23.752Z,8.75
2022-09-27T06:56:50.172Z,8.70
2022-09-27T06:59:35.185Z,8.74
2022-09-27T07:02:01.909Z,8.61
2022-09-27T07:04:28.415Z,8.69
2022-09-27T07:06:55.227Z,8.76
2022-09-27T07:09:21.654Z,8.81
2022-09-27T07:11:48.458Z,8.80
2022-09-27T07:14:16.350Z,8.88
2022-09-27T07:16:43.253Z,9.03
2022-09-27T07:19:11.680Z,9.24
2022-09-27T07:21:38.061Z,9.44
2022-09-27T07:24:04.478Z,9.72
2022-09-27T07:26:30.867Z,10.11
2022-09-27T07:28:57.280Z,10.40
2022-09-27T07:31:24.334Z,10.73
2022-09-27T07:33:52.695Z,10.62
2022-09-27T07:36:19.145Z,10.41
2022-09-27T07:38:45.530Z,10.36
2022-09-27T07:41:14.102Z,10.42
2022-09-27T07:43:41.223Z,10.32
2022-09-27T07:46:08.141Z,10.45
2022-09-27T07:48:34.608Z,10.57
2022-09-27T07:51:01.067Z,10.77
2022-09-27T07:53:27.753Z,11.23
2022-09-27T07:55:54.564Z,11.33
2022-09-27T07:58:21.756Z,11.20
2022-09-27T08:00:48.444Z,11.18
2022-09-27T08:03:16.223Z,11.40
2022-09-27T08:05:47.203Z,11.93
2022-09-27T08:08:13.969Z,12.10
2022-09-27T08:10:47.295Z,12.25
2022-09-27T08:13:14.672Z,12.28
2022-09-27T08:15:41.089Z,12.35
2022-09-27T08:18:09.532Z,12.53
2022-09-27T08:20:36.035Z,12.86
2022-09-27T08:23:04.308Z,12.67
2022-09-27T08:25:31.056Z,12.65
2022-09-27T08:28:01.240Z,12.69
2022-09-27T08:30:29.152Z,12.41
2022-09-27T08:32:56.147Z,12.24
2022-09-27T08:35:22.613Z,11.99
2022-09-27T08:37:56.017Z,12.01
2022-09-27T08:40:24.244Z,11.98
2022-09-27T08:42:57.418Z,11.64
2022-09-27T08:45:23.898Z,11.47
2022-09-27T08:47:55.155Z,11.46
2022-09-27T08:50:38.940Z,11.25
2022-09-27T08:53:23.558Z,10.99
2022-09-27T08:55:54.415Z,11.17
2022-09-27T08:58:25.787Z,11.37
2022-09-27T09:00:55.487Z,11.74
2022-09-27T09:03:23.870Z,11.91
2022-09-27T09:05:57.350Z,12.14
2022-09-27T09:08:31.286Z,12.35
2022-09-27T09:11:25.043Z,12.96
2022-09-27T09:13:57.266Z,13.71
2022-09-27T09:16:31.371Z,15.09
2022-09-27T09:19:09.106Z,15.21
2022-09-27T09:21:35.475Z,14.38
2022-09-27T09:24:20.552Z,13.68
2022-09-27T09:27:25.515Z,12.71
2022-09-27T09:29:54.643Z,11.57
2022-09-27T09:32:39.462Z,10.84
2022-09-27T09:35:13.807Z,10.40
2022-09-27T09:37:45.338Z,10.10
2022-09-27T09:40:14.609Z,9.95
2022-09-27T09:42:46.199Z,9.65
2022-09-27T09:45:18.000Z,9.70
2022-09-27T09:47:48.411Z,9.71
2022-09-27T09:50:21.468Z,9.91
2022-09-27T09:52:51.735Z,10.26
2022-09-27T09:55:28.614Z,10.75
2022-09-27T09:58:00.525Z,10.94
2022-09-27T10:00:26.948Z,11.28
2022-09-27T10:02:54.980Z,11.83
2022-09-27T10:05:23.381Z,12.11
2022-09-27T10:07:51.202Z,12.93
2022-09-27T10:10:19.638Z,13.59
2022-09-27T10:12:46.912Z,13.53
2022-09-27T10:15:20.932Z,13.86
2022-09-27T10:17:50.525Z,15.17
2022-09-27T10:20:30.300Z,15.29
2022-09-27T10:23:14.124Z,15.59
2022-09-27T10:25:54.306Z,15.83
2022-09-27T10:28:33.056Z,15.42
2022-09-27T10:31:01.084Z,15.87
2022-09-27T10:33:30.099Z,15.50
2022-09-27T10:35:56.491Z,15.01
2022-09-27T10:38:24.877Z,17.64
2022-09-27T10:40:52.717Z,16.73
2022-09-27T10:43:37.269Z,15.20
2022-09-27T10:46:06.785Z,13.92
2022-09-27T10:48:33.293Z,13.34
2022-09-27T10:51:01.261Z,13.01
2022-09-27T10:53:29.565Z,13.34
2022-09-27T10:55:56.275Z,13.43
2022-09-27T10:58:31.016Z,12.87
2022-09-27T11:01:01.265Z,12.90
2022-09-27T11:03:29.098Z,13.04
2022-09-27T11:05:56.042Z,13.18
2022-09-27T11:08:26.078Z,12.96
2022-09-27T11:11:11.329Z,12.63
2022-09-27T11:13:37.882Z,12.10
2022-09-27T11:16:19.617Z,11.68
2022-09-27T11:19:04.677Z,11.76
2022-09-27T11:21:45.747Z,12.00
2022-09-27T11:24:28.611Z,12.03
2022-09-27T11:27:06.839Z,11.79
2022-09-27T11:29:33.172Z,11.66
2022-09-27T11:32:18.236Z,11.57
2022-09-27T11:35:05.095Z,11.69
2022-09-27T11:37:38.865Z,11.77
2022-09-27T11:40:05.262Z,12.02
2022-09-27T11:42:50.490Z,12.22
2022-09-27T11:45:50.455Z,12.46
2022-09-27T11:48:24.483Z,12.91
2022-09-27T11:51:11.749Z,13.41
2022-09-27T11:53:45.853Z,13.79
2022-09-27T11:56:18.093Z,13.78
2022-09-27T11:58:56.381Z,13.84
2022-09-27T12:01:31.420Z,13.64
2022-09-27T12:04:03.818Z,14.40
2022-09-27T12:06:36.551Z,15.90
2022-09-27T12:09:06.326Z,17.82
2022-09-27T12:11:41.610Z,18.29
2022-09-27T12:14:27.108Z,17.17
2022-09-27T12:16:54.383Z,17.79
2022-09-27T12:19:26.980Z,17.54
2022-09-27T12:21:56.110Z,16.37
2022-09-27T12:24:23.664Z,16.90
2022-09-27T12:26:55.158Z,16.07
2022-09-27T12:29:33.902Z,16.67
2022-09-27T12:32:18.135Z,17.17
2022-09-27T12:34:51.416Z,18.76
2022-09-27T12:37:37.967Z,19.55
2022-09-27T12:40:26.741Z,18.06
2022-09-27T12:43:00.517Z,17.28
2022-09-27T12:45:41.933Z,15.90
2022-09-27T12:48:39.763Z,16.44
2022-09-27T12:51:06.289Z,14.69
2022-09-27T12:54:09.027Z,14.04
2022-09-27T12:57:18.013Z,13.01
2022-09-27T12:59:59.677Z,12.41
2022-09-27T13:03:11.155Z,11.74
2022-09-27T13:05:50.363Z,11.03
2022-09-27T13:08:41.480Z,10.57
2022-09-27T13:11:35.853Z,10.61
2022-09-27T13:14:04.376Z,10.99
2022-09-27T13:16:31.464Z,11.12
2022-09-27T13:19:01.801Z,11.19
2022-09-27T13:21:49.501Z,11.25
2022-09-27T13:24:40.939Z,11.24
2022-09-27T13:27:23.159Z,10.74
2022-09-27T13:30:13.085Z,10.40
2022-09-27T13:32:40.955Z,9.85
2022-09-27T13:35:18.589Z,9.79
2022-09-27T13:37:59.154Z,9.42
2022-09-27T13:40:32.841Z,9.52
2022-09-27T13:43:11.313Z,9.65
2022-09-27T13:45:57.282Z,9.65
2022-09-27T13:48:58.576Z,10.22
2022-09-27T13:51:33.862Z,10.74
2022-09-27T13:54:10.099Z,11.53
2022-09-27T13:56:37.813Z,12.18
2022-09-27T13:59:26.777Z,12.20
2022-09-27T14:02:01.047Z,12.11
2022-09-27T14:04:41.787Z,11.95
2022-09-27T14:07:13.943Z,11.93
2022-09-27T14:09:43.923Z,12.21
2022-09-27T14:12:12.311Z,12.19
2022-09-27T14:14:41.394Z,12.37
2022-09-27T14:17:10.427Z,12.25
2022-09-27T14:19:41.472Z,12.11
2022-09-27T14:22:20.034Z,13.00
2022-09-27T14:24:49.644Z,12.63
2022-09-27T14:27:25.369Z,12.12
2022-09-27T14:30:03.056Z,11.97
2022-09-27T14:32:32.403Z,11.62
2022-09-27T14:35:47.650Z,11.59
2022-09-27T14:38:37.160Z,11.51
2022-09-27T14:41:07.420Z,11.54
2022-09-27T14:43:36.058Z,11.31
2022-09-27T14:46:07.047Z,11.48
2022-09-27T14:48:38.840Z,11.50
2022-09-27T14:51:20.936Z,11.68
2022-09-27T14:54:01.050Z,11.54
2022-09-27T14:56:30.267Z,10.99
2022-09-27T14:59:09.299Z,10.70
2022-09-27T15:01:38.115Z,10.58
2022-09-27T15:04:14.582Z,10.58
2022-09-27T15:06:41.667Z,10.71
2022-09-27T15:09:13.958Z,10.67
2022-09-27T15:11:41.607Z,10.72
2022-09-27T15:14:15.384Z,10.68
2022-09-27T15:16:42.649Z,10.67
2022-09-27T15:19:30.700Z,10.47
2022-09-27T15:22:49.186Z,10.26
2022-09-27T15:25:24.040Z,10.10
2022-09-27T15:27:55.386Z,10.07
2022-09-27T15:30:42.483Z,9.95
2022-09-27T15:33:38.476Z,10.03
2022-09-27T15:36:07.864Z,10.07
2022-09-27T15:38:35.611Z,10.02
2022-09-27T15:41:04.229Z,10.00
2022-09-27T15:43:35.890Z,10.11
2022-09-27T15:46:05.264Z,10.33
2022-09-27T15:48:35.338Z,10.32
2022-09-27T15:51:03.073Z,10.31
2022-09-27T15:53:42.793Z,10.08
2022-09-27T15:56:13.704Z,9.97
2022-09-27T15:58:40.480Z,9.63
2022-09-27T16:01:07.040Z,9.46
2022-09-27T16:03:34.885Z,9.29
2022-09-27T16:06:04.771Z,9.21
2022-09-27T16:08:31.459Z,8.99
2022-09-27T16:10:59.123Z,8.94
2022-09-27T16:13:32.496Z,8.82
2022-09-27T16:15:59.811Z,8.70
2022-09-27T16:18:30.331Z,8.61
2022-09-27T16:21:00.507Z,8.60
2022-09-27T16:23:27.002Z,8.62
2022-09-27T16:25:53.875Z,8.62
2022-09-27T16:28:20.772Z,8.67
2022-09-27T16:30:48.170Z,8.79
2022-09-27T16:33:14.802Z,8.77
2022-09-27T16:35:41.392Z,8.72
2022-09-27T16:38:07.942Z,8.61
2022-09-27T16:40:34.508Z,8.60
2022-09-27T16:43:01.092Z,8.59
2022-09-27T16:45:32.769Z,8.44
2022-09-27T16:47:59.866Z,8.34
2022-09-27T16:50:44.972Z,8.34
2022-09-27T16:53:13.345Z,8.38
2022-09-27T16:55:39.791Z,8.39
2022-09-27T16:58:08.022Z,8.40
2022-09-27T17:00:35.478Z,8.47
2022-09-27T17:03:02.048Z,8.55
2022-09-27T17:05:28.661Z,8.59
2022-09-27T17:07:55.220Z,8.65
2022-09-27T17:10:23.130Z,8.58
2022-09-27T17:12:53.002Z,8.46
2022-09-27T17:15:19.646Z,8.36
2022-09-27T17:17:49.472Z,8.26
2022-09-27T17:20:16.135Z,8.19
2022-09-27T17:22:42.587Z,8.10
2022-09-27T17:25:09.409Z,7.98
2022-09-27T17:27:35.862Z,7.93
2022-09-27T17:30:02.581Z,7.85
2022-09-27T17:32:29.050Z,7.76
2022-09-27T17:34:57.319Z,7.60
2022-09-27T17:37:24.708Z,7.43
2022-09-27T17:39:51.180Z,7.45
2022-09-27T17:42:18.927Z,7.36
2022-09-27T17:44:46.436Z,7.23
2022-09-27T17:47:31.697Z,7.28
2022-09-27T17:50:17.081Z,7.36
2022-09-27T17:52:43.802Z,7.40
2022-09-27T17:55:10.672Z,7.62
2022-09-27T17:57:37.118Z,7.66
2022-09-27T18:00:04.694Z,7.78
2022-09-27T18:02:31.294Z,7.89
2022-09-27T18:04:57.842Z,8.00
2022-09-27T18:07:24.952Z,8.13
2022-09-27T18:09:51.661Z,8.18
2022-09-27T18:12:18.163Z,8.20
2022-09-27T18:14:45.740Z,8.25
2022-09-27T18:17:12.897Z,8.10
2022-09-27T18:19:39.839Z,8.07
2022-09-27T18:22:07.265Z,8.19
2022-09-27T18:24:33.775Z,8.24
2022-09-27T18:27:00.843Z,8.04
2022-09-27T18:29:28.723Z,7.98
2022-09-27T18:31:55.664Z,7.88
2022-09-27T18:34:24.067Z,7.87
2022-09-27T18:36:50.852Z,7.88
2022-09-27T18:39:19.508Z,7.80
2022-09-27T18:41:50.260Z,7.74
2022-09-27T18:44:17.511Z,7.76
2022-09-27T18:46:45.005Z,7.73
2022-09-27T18:49:13.535Z,7.77
2022-09-27T18:51:44.345Z,7.73
2022-09-27T18:54:19.570Z,7.79
2022-09-27T18:56:47.030Z,7.76
2022-09-27T18:59:13.624Z,7.87
2022-09-27T19:01:45.158Z,7.87
2022-09-27T19:04:14.836Z,7.76
2022-09-27T19:06:41.903Z,7.55
2022-09-27T19:09:08.876Z,7.51
2022-09-27T19:11:35.380Z,7.49
2022-09-27T19:14:02.174Z,7.50
2022-09-27T19:16:29.861Z,7.38
2022-09-27T19:18:56.813Z,7.36
2022-09-27T19:21:26.109Z,7.25
2022-09-27T19:23:53.456Z,7.21
2022-09-27T19:26:23.385Z,7.31
2022-09-27T19:28:50.293Z,7.38
2022-09-27T19:31:26.870Z,7.46
2022-09-27T19:33:58.998Z,7.56
2022-09-27T19:36:26.828Z,7.57
2022-09-27T19:38:53.554Z,7.50
2022-09-27T19:41:20.145Z,7.43
2022-09-27T19:43:56.783Z,7.41
2022-09-27T19:46:24.446Z,7.39
2022-09-27T19:48:51.647Z,7.39
2022-09-27T19:51:22.791Z,7.40
2022-09-27T19:53:50.426Z,7.36
2022-09-27T19:56:17.964Z,7.40
2022-09-27T19:58:44.690Z,7.42
2022-09-27T20:01:20.347Z,7.44
2022-09-27T20:03:48.463Z,7.54
2022-09-27T20:06:17.567Z,7.48
2022-09-27T20:08:44.841Z,7.47
2022-09-27T20:11:13.823Z,7.57
2022-09-27T20:13:41.201Z,7.54
2022-09-27T20:16:15.632Z,7.54
2022-09-27T20:18:44.615Z,7.62
2022-09-27T20:21:11.980Z,7.74
2022-09-27T20:23:38.865Z,7.78
2022-09-27T20:26:08.534Z,7.76
2022-09-27T20:28:36.106Z,7.81
2022-09-27T20:31:04.821Z,7.82
2022-09-27T20:33:44.139Z,7.86
2022-09-27T20:36:14.857Z,7.92
2022-09-27T20:38:43.316Z,7.91
2022-09-27T20:41:11.377Z,8.03
2022-09-27T20:43:39.195Z,7.98
2022-09-27T20:46:12.344Z,8.05
2022-09-27T20:48:39.548Z,7.97
2022-09-27T20:51:07.442Z,7.90
2022-09-27T20:53:35.111Z,7.92
2022-09-27T20:56:02.840Z,7.98
2022-09-27T20:58:29.992Z,7.99
2022-09-27T21:00:56.604Z,7.94
2022-09-27T21:03:23.234Z,7.98
2022-09-27T21:05:56.696Z,8.08
2022-09-27T21:08:23.998Z,8.09
2022-09-27T21:10:52.967Z,8.01
2022-09-27T21:13:19.904Z,7.94
2022-09-27T21:15:47.220Z,7.91
2022-09-27T21:18:13.857Z,7.89
2022-09-27T21:20:40.339Z,7.83
2022-09-27T21:23:06.853Z,7.84
2022-09-27T21:25:33.405Z,7.83
2022-09-27T21:28:00.087Z,7.74
2022-09-27T21:30:27.644Z,7.75
2022-09-27T21:32:57.751Z,7.77
2022-09-27T21:35:24.145Z,7.72
2022-09-27T21:37:50.650Z,7.78
2022-09-27T21:40:17.250Z,7.77
2022-09-27T21:42:43.834Z,7.66
2022-09-27T21:45:10.704Z,7.62
2022-09-27T21:47:37.163Z,7.63
2022-09-27T21:50:03.814Z,7.63
2022-09-27T21:52:30.301Z,7.62
2022-09-27T21:54:56.961Z,7.56
2022-09-27T21:57:23.430Z,7.58
2022-09-27T21:59:49.870Z,7.50
2022-09-27T22:02:19.304Z,7.50
2022-09-27T22:04:45.893Z,7.48
2022-09-27T22:07:12.409Z,7.47
2022-09-27T22:09:38.905Z,7.54
2022-09-27T22:12:06.302Z,7.56
2022-09-27T22:14:34.648Z,7.56
2022-09-27T22:17:01.147Z,7.64
2022-09-27T22:19:27.623Z,7.62
2022-09-27T22:21:54.102Z,7.58
2022-09-27T22:24:20.633Z,7.57
2022-09-27T22:26:51.822Z,7.65
2022-09-27T22:29:18.718Z,7.61
2022-09-27T22:31:45.665Z,7.57
2022-09-27T22:34:18.236Z,7.63
2022-09-27T22:36:44.777Z,7.63
2022-09-27T22:39:11.310Z,7.66
2022-09-27T22:41:38.617Z,7.70
2022-09-27T22:44:05.243Z,7.79
2022-09-27T22:46:31.813Z,7.75
2022-09-27T22:48:58.491Z,7.73
2022-09-27T22:51:25.045Z,7.70
2022-09-27T22:53:51.571Z,7.69
2022-09-27T22:56:20.111Z,7.70
2022-09-27T22:58:48.097Z,7.75
2022-09-27T23:01:24.924Z,7.72
2022-09-27T23:03:53.439Z,7.66
2022-09-27T23:06:21.908Z,7.59
2022-09-27T23:08:49.078Z,7.58
2022-09-27T23:11:18.567Z,7.56
2022-09-27T23:13:45.883Z,7.61
2022-09-27T23:16:15.422Z,7.63
2022-09-27T23:18:42.778Z,7.68
2022-09-27T23:21:12.138Z,7.69
2022-09-27T23:23:44.942Z,7.64
2022-09-27T23:26:16.165Z,7.64
2022-09-27T23:28:43.586Z,7.49
2022-09-27T23:31:16.765Z,7.50
2022-09-27T23:33:46.348Z,7.58
2022-09-27T23:36:16.342Z,7.53
2022-09-27T23:38:45.462Z,7.53
2022-09-27T23:41:12.964Z,7.49
2022-09-27T23:43:39.439Z,7.50
2022-09-27T23:46:07.177Z,7.49
2022-09-27T23:48:35.183Z,7.52
2022-09-27T23:51:02.844Z,7.56
2022-09-27T23:53:30.051Z,7.56
2022-09-27T23:56:06.625Z,7.57
2022-09-27T23:58:41.873Z,7.63
